Airfield :
LOGIN :

Register | Disclaimer

   EN    FR    IT 

 










Legend :    VFR   Marginal VFR   IFR   Intensive IFR   Very Intensive IFR
Visi :
Ceiling :
>= 8 km
>= 3000ft
5 to 8 km
1000 to 3000 ft
1500m to 5 km
500 to 1000 ft
800 to 1500m
200 to 500 ft
< 800m
< 200 ft
Symbols :   Thunderstorms  Fog  Heavy snow  Heavy precipitations  Wind > 20 kt
SIGMETs :     Misc.  Thunderstorms  Icing  Turbulence  Mountain Waves  Volcanic Ashes






- Airport Elevation : 138 ft
- IATA code : BIO


LEBB - Bilbao

CURRENT METAR :
  • 011430Z 00000KT 9999 FEW019 BKN038 10/07 Q1020 NOSIG

EXPIRED METARs :
  • 011400Z 00000KT 9999 FEW020 BKN037 10/07 Q1021 NOSIG
  • 011330Z 00000KT 9999 FEW022 BKN038 10/07 Q1021 NOSIG
  • 011300Z VRB01KT 9999 FEW022 BKN034 BKN040 10/07 Q1021 NOSIG
  • 011230Z VRB02KT 9999 FEW025 BKN036 10/08 Q1021 NOSIG
  • 011200Z 00000KT 9999 FEW025 BKN034 09/08 Q1022 NOSIG
  • 011130Z 00000KT 9999 FEW027 BKN036 09/07 Q1022 NOSIG

TAF TAF LEBB
Valid from the 01 at 12:00 until the 02 at 12:00 UTC


011100Z 0112/0212 VRB03KT 9999 BKN030 TX10/0114Z TN05/0206Z
PROB40
TEMPO 0113/0118 02008KT



MET'MAP, your aeronautical weather chart ! - Copyright ORBIFLY December 2007 - Disclaimer

ORBIFLY MET'MAP TEAM :

Programming & Development : Alexandra Zaïnal
Original concept : Baudouin d'Aumeries
Technical & hardware support : Manuel Goepfert
Assistance : Marc-Olivier Méhu




SOURCES & CREDITS :

   NOAA